Time;durP1;ratioP1;P1;durP2;ratioP2;P2;SDS_P1;SDS_P2;PMS_P1;PMS_P2;Temp;Humidity;BMP_temperature;BMP_pressure;BME280_temperature;BME280_humidity;BME280_pressure;Samples;Min_cycle;Max_cycle;Signal;HPM_P1;HPM_P2
2022/09/21 00:02:24;;;;;;;;;;;;;;;;;;6291346;22;20366;-89
2022/09/21 00:04:50;;;;;;;;;;;;;;;;;;6291515;22;19915;-89
2022/09/21 00:07:16;;;;;;;;;;;;;;;;;;6294021;22;20254;-90
2022/09/21 00:09:41;;;;;;;;;;;;;;;;;;6266920;22;19918;-90
2022/09/21 00:12:08;;;;;;;;;;;;;;;;;;6265443;22;20335;-89
2022/09/21 00:14:34;;;;;;;;;;;;;;;;;;6294596;22;19926;-89
2022/09/21 00:17:00;;;;;;;;;;;;;;;;;;6290629;22;19919;-90
2022/09/21 00:19:26;;;;;;;;;;;;;;;;;;6266324;22;19929;-90
2022/09/21 00:21:52;;;;;;;;;;;;;;;;;;6263597;22;19914;-90
2022/09/21 00:24:18;;;;;;;;;;;;;;;;;;6293189;22;19918;-91
2022/09/21 00:26:44;;;;;;;;;;;;;;;;;;6289423;22;19950;-90
2022/09/21 00:29:10;;;;;;;;;;;;;;;;;;6295073;22;19954;-89
2022/09/21 00:31:36;;;;;;;;;;;;;;;;;;6289628;22;19929;-88
2022/09/21 00:34:06;;;;;;;;;;;;;;;;;;6292322;22;19919;-89
2022/09/21 00:36:32;;;;;;;;;;;;;;;;;;6291147;22;19972;-90
2022/09/21 00:38:59;;;;;;;;;;;;;;;;;;6262987;22;19923;-91
2022/09/21 00:41:25;;;;;;;;;;;;;;;;;;6265979;22;19954;-89
2022/09/21 00:43:51;;;;;;;;;;;;;;;;;;6266033;22;19919;-90
2022/09/21 00:46:17;;;;;;;;;;;;;;;;;;6294122;22;19980;-91
2022/09/21 00:48:44;;;;;;;;;;;;;;;;;;6288534;22;19994;-89
2022/09/21 00:51:10;;;;;;;;;;;;;;;;;;6293812;22;19919;-90
2022/09/21 00:53:36;;;;;;;;;;;;;;;;;;6266984;22;20276;-91
2022/09/21 00:56:02;;;;;;;;;;;;;;;;;;6268067;22;19964;-90
2022/09/21 00:58:29;;;;;;;;;;;;;;;;;;6289116;22;19950;-89
2022/09/21 01:00:55;;;;;;;;;;;;;;;;;;6280501;22;20523;-90
2022/09/21 01:03:21;;;;;;;;;;;;;;;;;;6264082;22;20015;-89
2022/09/21 01:05:47;;;;;;;;;;;;;;;;;;6261261;22;20403;-90
2022/09/21 01:08:14;;;;;;;;;;;;;;;;;;6262765;22;19918;-90
2022/09/21 01:10:40;;;;;;;;;;;;;;;;;;6262135;22;19919;-91
2022/09/21 01:13:06;;;;;;;;;;;;;;;;;;6290121;22;19975;-91
2022/09/21 01:15:32;;;;;;;;;;;;;;;;;;6262992;22;19946;-90
2022/09/21 01:17:58;;;;;;;;;;;;;;;;;;6287933;22;20328;-90
2022/09/21 01:20:24;;;;;;;;;;;;;;;;;;6265641;22;20009;-91
2022/09/21 01:22:50;;;;;;;;;;;;;;;;;;6288217;22;20327;-90
2022/09/21 01:25:16;;;;;;;;;;;;;;;;;;6265483;22;19918;-90
2022/09/21 01:27:42;;;;;;;;;;;;;;;;;;6262321;22;20460;-90
2022/09/21 01:30:08;;;;;;;;;;;;;;;;;;6264140;22;20375;-90
2022/09/21 01:32:34;;;;;;;;;;;;;;;;;;6264955;22;19968;-90
2022/09/21 01:35:00;;;;;;;;;;;;;;;;;;6263911;22;19942;-89
2022/09/21 01:37:26;;;;;;;;;;;;;;;;;;6289623;22;19919;-90
2022/09/21 01:39:52;;;;;;;;;;;;;;;;;;6283880;22;19923;-90
2022/09/21 01:42:18;;;;;;;;;;;;;;;;;;6262602;22;19997;-90
2022/09/21 01:44:44;;;;;;;;;;;;;;;;;;6263162;22;19918;-89
2022/09/21 01:47:11;;;;;;;;;;;;;;;;;;6292343;22;19923;-91
2022/09/21 01:49:37;;;;;;;;;;;;;;;;;;6288741;22;19993;-90
2022/09/21 01:52:03;;;;;;;;;;;;;;;;;;6264299;22;19954;-90
2022/09/21 01:54:29;;;;;;;;;;;;;;;;;;6264119;22;19919;-91
2022/09/21 01:56:55;;;;;;;;;;;;;;;;;;6262896;22;20857;-90
2022/09/21 01:59:21;;;;;;;;;;;;;;;;;;6290468;22;19922;-90
2022/09/21 02:01:47;;;;;;;;;;;;;;;;;;6286383;22;19922;-90
2022/09/21 02:04:13;;;;;;;;;;;;;;;;;;6264384;22;19942;-89
2022/09/21 02:06:39;;;;;;;;;;;;;;;;;;6262898;22;19934;-90
2022/09/21 02:09:05;;;;;;;;;;;;;;;;;;6290872;22;19915;-90
2022/09/21 02:11:31;;;;;;;;;;;;;;;;;;6290465;22;19989;-89
2022/09/21 02:13:57;;;;;;;;;;;;;;;;;;6262979;22;19922;-89
2022/09/21 02:16:23;;;;;;;;;;;;;;;;;;6264679;22;19919;-89
2022/09/21 02:18:49;;;;;;;;;;;;;;;;;;6263283;22;19915;-89
2022/09/21 02:21:15;;;;;;;;;;;;;;;;;;6267206;22;19981;-89
2022/09/21 02:23:42;;;;;;;;;;;;;;;;;;6264629;22;19922;-89
2022/09/21 02:26:08;;;;;;;;;;;;;;;;;;6291657;22;19973;-89
2022/09/21 02:28:34;;;;;;;;;;;;;;;;;;6265476;22;20359;-89
2022/09/21 02:31:01;;;;;;;;;;;;;;;;;;6265119;22;20341;-88
2022/09/21 02:33:27;;;;;;;;;;;;;;;;;;6268343;22;19919;-88
2022/09/21 02:35:53;;;;;;;;;;;;;;;;;;6292488;22;19922;-89
2022/09/21 02:38:19;;;;;;;;;;;;;;;;;;6267990;22;20338;-90
2022/09/21 02:40:44;;;;;;;;;;;;;;;;;;6288978;22;19927;-90
2022/09/21 02:43:10;;;;;;;;;;;;;;;;;;6290738;22;19926;-90
2022/09/21 02:45:36;;;;;;;;;;;;;;;;;;6262691;22;19923;-90
2022/09/21 02:48:02;;;;;;;;;;;;;;;;;;6264599;22;19918;-90
2022/09/21 02:50:28;;;;;;;;;;;;;;;;;;6267624;22;20327;-88
2022/09/21 02:52:54;;;;;;;;;;;;;;;;;;6263171;22;19926;-89
2022/09/21 02:55:21;;;;;;;;;;;;;;;;;;6294625;22;20359;-90
2022/09/21 02:57:46;;;;;;;;;;;;;;;;;;6266002;22;19919;-88
2022/09/21 03:00:12;;;;;;;;;;;;;;;;;;6294773;22;19973;-90
2022/09/21 03:02:38;;;;;;;;;;;;;;;;;;6267137;22;19918;-89
2022/09/21 03:05:04;;;;;;;;;;;;;;;;;;6271995;22;19929;-90
2022/09/21 03:07:31;;;;;;;;;;;;;;;;;;6296949;22;19922;-89
2022/09/21 03:09:57;;;;;;;;;;;;;;;;;;6292216;22;19989;-89
2022/09/21 03:12:23;;;;;;;;;;;;;;;;;;6267680;22;19950;-89
2022/09/21 03:14:50;;;;;;;;;;;;;;;;;;6267009;22;19922;-89
2022/09/21 03:17:16;;;;;;;;;;;;;;;;;;6269610;22;20399;-91
2022/09/21 03:19:42;;;;;;;;;;;;;;;;;;6294720;22;19923;-89
2022/09/21 03:22:08;;;;;;;;;;;;;;;;;;6268050;22;20375;-89
2022/09/21 03:24:46;;;;;;;;;;;;;;;;;;6268881;22;19919;-89
2022/09/21 03:27:13;;;;;;;;;;;;;;;;;;6268457;22;20366;-89
2022/09/21 03:29:38;;;;;;;;;;;;;;;;;;6267919;22;19948;-89
2022/09/21 03:32:04;;;;;;;;;;;;;;;;;;6295275;22;20320;-89
2022/09/21 03:34:33;;;;;;;;;;;;;;;;;;6294573;22;19923;-89
2022/09/21 03:36:59;;;;;;;;;;;;;;;;;;6262636;22;19997;-89
2022/09/21 03:39:25;;;;;;;;;;;;;;;;;;6269241;22;20001;-88
2022/09/21 03:41:51;;;;;;;;;;;;;;;;;;6265997;22;20347;-89
2022/09/21 03:44:18;;;;;;;;;;;;;;;;;;6296133;22;19919;-89
2022/09/21 03:46:44;;;;;;;;;;;;;;;;;;6292686;22;20326;-89
2022/09/21 03:49:10;;;;;;;;;;;;;;;;;;6267764;22;19926;-89
2022/09/21 03:51:37;;;;;;;;;;;;;;;;;;6266386;22;19961;-89
2022/09/21 03:54:03;;;;;;;;;;;;;;;;;;6295583;22;19964;-89
2022/09/21 03:56:29;;;;;;;;;;;;;;;;;;6267439;22;19998;-88
2022/09/21 03:58:55;;;;;;;;;;;;;;;;;;6292359;22;20706;-90
2022/09/21 04:01:21;;;;;;;;;;;;;;;;;;6266420;22;19922;-89
2022/09/21 04:03:47;;;;;;;;;;;;;;;;;;6291765;22;19919;-89
2022/09/21 04:06:13;;;;;;;;;;;;;;;;;;6267659;22;20386;-89
2022/09/21 04:08:39;;;;;;;;;;;;;;;;;;6291126;22;19919;-89
2022/09/21 04:11:05;;;;;;;;;;;;;;;;;;6265530;22;19922;-90
2022/09/21 04:13:31;;;;;;;;;;;;;;;;;;6267429;22;19972;-90
2022/09/21 04:15:57;;;;;;;;;;;;;;;;;;6294550;22;19919;-90
2022/09/21 04:18:24;;;;;;;;;;;;;;;;;;6296634;22;19915;-92
2022/09/21 04:20:50;;;;;;;;;;;;;;;;;;6264123;22;20061;-90
2022/09/21 04:23:16;;;;;;;;;;;;;;;;;;6267648;22;20046;-91
2022/09/21 04:25:42;;;;;;;;;;;;;;;;;;6264272;22;20397;-89
2022/09/21 04:28:08;;;;;;;;;;;;;;;;;;6266931;22;19950;-89
2022/09/21 04:30:34;;;;;;;;;;;;;;;;;;6267949;22;19926;-90
2022/09/21 04:33:04;;;;;;;;;;;;;;;;;;6271148;22;19923;-90
2022/09/21 04:35:30;;;;;;;;;;;;;;;;;;6293728;22;20409;-90
2022/09/21 04:37:56;;;;;;;;;;;;;;;;;;6292263;22;20271;-89
2022/09/21 04:40:22;;;;;;;;;;;;;;;;;;6265874;22;20114;-90
2022/09/21 04:42:48;;;;;;;;;;;;;;;;;;6260799;22;19919;-89
2022/09/21 04:45:14;;;;;;;;;;;;;;;;;;6264950;22;19926;-90
2022/09/21 04:47:40;;;;;;;;;;;;;;;;;;6260655;22;19919;-89
2022/09/21 04:50:06;;;;;;;;;;;;;;;;;;6291683;22;19922;-89
2022/09/21 04:52:31;;;;;;;;;;;;;;;;;;6266252;22;19919;-90
2022/09/21 04:54:58;;;;;;;;;;;;;;;;;;6260555;22;19919;-89
2022/09/21 04:57:24;;;;;;;;;;;;;;;;;;6290409;22;19919;-90
2022/09/21 04:59:50;;;;;;;;;;;;;;;;;;6259480;22;20263;-86
2022/09/21 05:02:16;;;;;;;;;;;;;;;;;;6287110;22;19989;-90
2022/09/21 05:04:42;;;;;;;;;;;;;;;;;;6262707;22;20331;-90
2022/09/21 05:07:07;;;;;;;;;;;;;;;;;;6293767;22;19915;-90
2022/09/21 05:12:18;;;;;;;;;;;;;;;;;;6291641;22;19919;-90
2022/09/21 05:14:44;;;;;;;;;;;;;;;;;;6289149;22;20361;-90
2022/09/21 05:17:10;;;;;;;;;;;;;;;;;;6261792;22;19918;-89
2022/09/21 05:19:36;;;;;;;;;;;;;;;;;;6289261;22;19958;-89
2022/09/21 05:22:02;;;;;;;;;;;;;;;;;;6263770;22;19950;-90
2022/09/21 05:24:28;;;;;;;;;;;;;;;;;;6265794;22;20410;-90
2022/09/21 05:26:54;;;;;;;;;;;;;;;;;;6287669;22;20336;-90
2022/09/21 05:29:20;;;;;;;;;;;;;;;;;;6288737;22;20236;-90
2022/09/21 05:31:46;;;;;;;;;;;;;;;;;;6264680;22;19915;-90
2022/09/21 05:34:12;;;;;;;;;;;;;;;;;;6292540;22;19926;-89
2022/09/21 05:36:38;;;;;;;;;;;;;;;;;;6259423;22;19919;-89
2022/09/21 05:39:04;;;;;;;;;;;;;;;;;;6291231;22;19919;-89
2022/09/21 05:41:30;;;;;;;;;;;;;;;;;;6265303;22;20336;-89
2022/09/21 05:43:56;;;;;;;;;;;;;;;;;;6262992;22;19922;-89
2022/09/21 05:46:22;;;;;;;;;;;;;;;;;;6265832;22;19933;-88
2022/09/21 05:48:48;;;;;;;;;;;;;;;;;;6263079;22;19922;-89
2022/09/21 05:51:14;;;;;;;;;;;;;;;;;;6263787;22;20398;-88
2022/09/21 05:53:40;;;;;;;;;;;;;;;;;;6287692;22;19941;-89
2022/09/21 05:56:06;;;;;;;;;;;;;;;;;;6267597;22;19942;-88
2022/09/21 05:58:32;;;;;;;;;;;;;;;;;;6288705;22;19919;-88
2022/09/21 06:00:58;;;;;;;;;;;;;;;;;;6261816;22;19930;-89
2022/09/21 06:03:24;;;;;;;;;;;;;;;;;;6290150;22;20259;-88
2022/09/21 06:05:50;;;;;;;;;;;;;;;;;;6260819;22;19919;-88
2022/09/21 06:08:16;;;;;;;;;;;;;;;;;;6257162;22;20302;-88
2022/09/21 06:10:42;;;;;;;;;;;;;;;;;;6256982;22;19919;-88
2022/09/21 06:13:08;;;;;;;;;;;;;;;;;;6283688;22;19918;-89
2022/09/21 06:15:37;;;;;;;;;;;;;;;;;;6266279;22;20323;-88
2022/09/21 06:18:03;;;;;;;;;;;;;;;;;;6258793;22;19950;-89
2022/09/21 06:20:29;;;;;;;;;;;;;;;;;;6261453;22;20352;-88
2022/09/21 06:22:55;;;;;;;;;;;;;;;;;;6285021;22;20291;-88
2022/09/21 06:25:21;;;;;;;;;;;;;;;;;;6287102;22;19918;-88
2022/09/21 06:27:46;;;;;;;;;;;;;;;;;;6285182;22;19969;-88
2022/09/21 06:30:12;;;;;;;;;;;;;;;;;;6286855;22;19954;-88
2022/09/21 06:32:38;;;;;;;;;;;;;;;;;;6287045;22;20715;-88
2022/09/21 06:35:04;;;;;;;;;;;;;;;;;;6291089;22;20232;-88
2022/09/21 06:37:30;;;;;;;;;;;;;;;;;;6293467;22;20041;-88
2022/09/21 06:39:56;;;;;;;;;;;;;;;;;;6260018;22;19993;-88
2022/09/21 06:42:22;;;;;;;;;;;;;;;;;;6291919;22;20331;-88
2022/09/21 06:44:48;;;;;;;;;;;;;;;;;;6260448;22;20370;-89
2022/09/21 06:47:14;;;;;;;;;;;;;;;;;;6255752;22;20307;-88
2022/09/21 06:49:40;;;;;;;;;;;;;;;;;;6259250;22;20251;-88
2022/09/21 06:52:06;;;;;;;;;;;;;;;;;;6289331;22;19972;-88
2022/09/21 06:54:32;;;;;;;;;;;;;;;;;;6269968;22;19942;-87
2022/09/21 06:56:58;;;;;;;;;;;;;;;;;;6288737;22;19922;-89
2022/09/21 06:59:24;;;;;;;;;;;;;;;;;;6289369;22;19922;-88
2022/09/21 07:01:50;;;;;;;;;;;;;;;;;;6263479;22;19925;-87
2022/09/21 07:04:16;;;;;;;;;;;;;;;;;;6291639;22;19919;-88
2022/09/21 07:06:42;;;;;;;;;;;;;;;;;;6293830;22;19926;-88
2022/09/21 07:09:08;;;;;;;;;;;;;;;;;;6272101;22;20370;-88
2022/09/21 07:11:34;;;;;;;;;;;;;;;;;;6270949;22;19919;-88
2022/09/21 07:13:59;;;;;;;;;;;;;;;;;;6268574;22;19973;-88
2022/09/21 07:16:26;;;;;;;;;;;;;;;;;;6292983;22;20251;-89
2022/09/21 07:18:52;;;;;;;;;;;;;;;;;;6266692;22;19923;-89
2022/09/21 07:21:18;;;;;;;;;;;;;;;;;;6269276;22;20351;-89
2022/09/21 07:23:44;;;;;;;;;;;;;;;;;;6289886;22;20251;-88
2022/09/21 07:26:10;;;;;;;;;;;;;;;;;;6267455;22;19919;-89
2022/09/21 07:28:36;;;;;;;;;;;;;;;;;;6264028;22;19972;-88
2022/09/21 07:31:02;;;;;;;;;;;;;;;;;;6265852;22;19915;-89
2022/09/21 07:33:28;;;;;;;;;;;;;;;;;;6292015;22;19938;-88
2022/09/21 07:35:57;;;;;;;;;;;;;;;;;;6286000;22;19926;-89
2022/09/21 07:38:23;;;;;;;;;;;;;;;;;;6268680;22;20342;-89
2022/09/21 07:40:49;;;;;;;;;;;;;;;;;;6267198;22;20061;-88
2022/09/21 07:43:15;;;;;;;;;;;;;;;;;;6268299;22;19989;-90
2022/09/21 07:45:41;;;;;;;;;;;;;;;;;;6265772;22;19926;-89
2022/09/21 07:48:10;;;;;;;;;;;;;;;;;;6271977;22;20386;-87
2022/09/21 07:50:36;;;;;;;;;;;;;;;;;;6293219;22;19930;-87
2022/09/21 07:53:02;;;;;;;;;;;;;;;;;;6271748;22;19919;-88
2022/09/21 07:55:28;;;;;;;;;;;;;;;;;;6267633;22;19933;-88
2022/09/21 08:00:39;;;;;;;;;;;;;;;;;;6292978;22;20027;-88
2022/09/21 08:03:05;;;;;;;;;;;;;;;;;;6291318;22;19919;-88
2022/09/21 08:05:30;;;;;;;;;;;;;;;;;;6267366;22;20363;-88
2022/09/21 08:07:56;;;;;;;;;;;;;;;;;;6294314;22;19923;-88
2022/09/21 08:10:23;;;;;;;;;;;;;;;;;;6269175;22;19919;-88
2022/09/21 08:12:48;;;;;;;;;;;;;;;;;;6266076;22;19994;-88
2022/09/21 08:15:16;;;;;;;;;;;;;;;;;;6268545;22;20316;-88
2022/09/21 08:17:43;;;;;;;;;;;;;;;;;;6265232;22;20303;-88
2022/09/21 08:20:09;;;;;;;;;;;;;;;;;;6297266;22;19926;-88
2022/09/21 08:22:38;;;;;;;;;;;;;;;;;;6270383;22;20310;-88
2022/09/21 08:25:04;;;;;;;;;;;;;;;;;;6271018;22;19919;-88
2022/09/21 08:27:30;;;;;;;;;;;;;;;;;;6269568;22;19926;-88
2022/09/21 08:29:56;;;;;;;;;;;;;;;;;;6267814;22;20041;-88
2022/09/21 08:32:22;;;;;;;;;;;;;;;;;;6269965;22;19958;-88
2022/09/21 08:34:48;;;;;;;;;;;;;;;;;;6296154;22;20246;-89
2022/09/21 08:37:14;;;;;;;;;;;;;;;;;;6270397;22;19929;-89
2022/09/21 08:39:40;;;;;;;;;;;;;;;;;;6295086;22;20290;-90
2022/09/21 08:42:06;;;;;;;;;;;;;;;;;;6269970;22;20255;-89
2022/09/21 08:44:32;;;;;;;;;;;;;;;;;;6296618;22;19915;-89
2022/09/21 08:46:59;;;;;;;;;;;;;;;;;;6293097;22;19915;-89
2022/09/21 08:49:25;;;;;;;;;;;;;;;;;;6271197;22;19986;-89
2022/09/21 08:51:50;;;;;;;;;;;;;;;;;;6294076;22;20000;-89
2022/09/21 08:54:16;;;;;;;;;;;;;;;;;;6270659;22;19919;-89
2022/09/21 08:56:42;;;;;;;;;;;;;;;;;;6293969;22;19993;-89
2022/09/21 08:59:08;;;;;;;;;;;;;;;;;;6268993;22;20336;-89
2022/09/21 09:01:38;;;;;;;;;;;;;;;;;;6269576;22;19969;-90
2022/09/21 09:04:03;;;;;;;;;;;;;;;;;;6295234;22;19918;-89
2022/09/21 09:06:29;;;;;;;;;;;;;;;;;;6270505;22;19926;-89
2022/09/21 09:08:56;;;;;;;;;;;;;;;;;;6290756;22;20438;-89
2022/09/21 09:11:22;;;;;;;;;;;;;;;;;;6265552;22;19919;-89
2022/09/21 09:13:48;;;;;;;;;;;;;;;;;;6263880;22;19953;-89
2022/09/21 09:16:14;;;;;;;;;;;;;;;;;;6265986;22;19919;-88
2022/09/21 09:18:40;;;;;;;;;;;;;;;;;;6264099;22;19988;-87
2022/09/21 09:21:06;;;;;;;;;;;;;;;;;;6265677;22;19923;-88
2022/09/21 09:23:32;;;;;;;;;;;;;;;;;;6288422;22;19919;-87
2022/09/21 09:25:58;;;;;;;;;;;;;;;;;;6264200;22;19950;-88
2022/09/21 09:28:24;;;;;;;;;;;;;;;;;;6296106;22;19915;-88
2022/09/21 09:30:50;;;;;;;;;;;;;;;;;;6267966;22;19922;-88
2022/09/21 09:33:16;;;;;;;;;;;;;;;;;;6269720;22;19956;-88
2022/09/21 09:35:41;;;;;;;;;;;;;;;;;;6292845;22;19926;-89
2022/09/21 09:38:07;;;;;;;;;;;;;;;;;;6293117;22;19918;-88
2022/09/21 09:40:33;;;;;;;;;;;;;;;;;;6292139;22;20311;-88
2022/09/21 09:43:01;;;;;;;;;;;;;;;;;;6263971;22;20327;-89
2022/09/21 09:45:27;;;;;;;;;;;;;;;;;;6268596;22;19918;-89
2022/09/21 09:47:53;;;;;;;;;;;;;;;;;;6290753;22;19949;-88
2022/09/21 09:50:20;;;;;;;;;;;;;;;;;;6266628;22;19919;-89
2022/09/21 09:52:46;;;;;;;;;;;;;;;;;;6263224;22;20229;-88
2022/09/21 09:55:12;;;;;;;;;;;;;;;;;;6264855;22;20149;-89
2022/09/21 09:57:38;;;;;;;;;;;;;;;;;;6265519;22;20415;-89
2022/09/21 10:00:07;;;;;;;;;;;;;;;;;;6268889;22;19923;-88
2022/09/21 10:02:33;;;;;;;;;;;;;;;;;;6269545;22;19982;-88
2022/09/21 10:05:04;;;;;;;;;;;;;;;;;;6290608;22;19929;-89
2022/09/21 10:07:30;;;;;;;;;;;;;;;;;;6293219;22;19926;-88
2022/09/21 10:09:56;;;;;;;;;;;;;;;;;;6264061;22;19918;-89
2022/09/21 10:12:22;;;;;;;;;;;;;;;;;;6268579;22;19974;-89
2022/09/21 10:14:48;;;;;;;;;;;;;;;;;;6290725;22;19990;-89
2022/09/21 10:17:14;;;;;;;;;;;;;;;;;;6267868;22;19972;-89
2022/09/21 10:19:40;;;;;;;;;;;;;;;;;;6265914;22;20225;-89
2022/09/21 10:22:06;;;;;;;;;;;;;;;;;;6293626;22;19919;-89
2022/09/21 10:24:32;;;;;;;;;;;;;;;;;;6266362;22;19926;-89
2022/09/21 10:26:59;;;;;;;;;;;;;;;;;;6263054;22;19998;-89
2022/09/21 10:29:25;;;;;;;;;;;;;;;;;;6292244;22;19965;-88
2022/09/21 10:31:51;;;;;;;;;;;;;;;;;;6267396;22;19919;-92
2022/09/21 10:34:17;;;;;;;;;;;;;;;;;;6265440;22;19919;-89
2022/09/21 10:36:43;;;;;;;;;;;;;;;;;;6262268;22;20275;-89
2022/09/21 10:39:09;;;;;;;;;;;;;;;;;;6266039;22;19930;-89
2022/09/21 10:41:35;;;;;;;;;;;;;;;;;;6292016;22;20486;-88
2022/09/21 10:44:01;;;;;;;;;;;;;;;;;;6293606;22;19925;-88
2022/09/21 10:46:27;;;;;;;;;;;;;;;;;;6267086;22;19926;-89
2022/09/21 10:48:53;;;;;;;;;;;;;;;;;;6289574;22;19919;-89
2022/09/21 10:51:19;;;;;;;;;;;;;;;;;;6267168;22;19921;-88
2022/09/21 10:53:45;;;;;;;;;;;;;;;;;;6292359;22;19949;-89
2022/09/21 10:56:11;;;;;;;;;;;;;;;;;;6267884;22;19918;-88
2022/09/21 10:58:38;;;;;;;;;;;;;;;;;;6264686;22;19953;-88
2022/09/21 11:01:04;;;;;;;;;;;;;;;;;;6292098;22;19966;-89
2022/09/21 11:03:30;;;;;;;;;;;;;;;;;;6267620;22;19919;-88
2022/09/21 11:05:56;;;;;;;;;;;;;;;;;;6262780;22;20391;-88
2022/09/21 11:08:22;;;;;;;;;;;;;;;;;;6294584;22;19915;-88
2022/09/21 11:10:48;;;;;;;;;;;;;;;;;;6290461;22;20376;-89
2022/09/21 11:13:15;;;;;;;;;;;;;;;;;;6292590;22;19950;-89
2022/09/21 11:15:41;;;;;;;;;;;;;;;;;;6265282;22;19919;-88
2022/09/21 11:18:07;;;;;;;;;;;;;;;;;;6292433;22;19915;-89
2022/09/21 11:20:33;;;;;;;;;;;;;;;;;;6266573;22;20435;-88
2022/09/21 11:22:59;;;;;;;;;;;;;;;;;;6293433;22;19942;-89
2022/09/21 11:25:27;;;;;;;;;;;;;;;;;;6294392;22;19923;-89
2022/09/21 11:27:53;;;;;;;;;;;;;;;;;;6291873;22;19918;-88
2022/09/21 11:30:19;;;;;;;;;;;;;;;;;;6268133;22;19919;-89
2022/09/21 11:32:45;;;;;;;;;;;;;;;;;;6267502;22;20300;-89
2022/09/21 11:35:11;;;;;;;;;;;;;;;;;;6273666;22;20335;-89
2022/09/21 11:37:37;;;;;;;;;;;;;;;;;;6272818;22;19964;-89
2022/09/21 11:40:03;;;;;;;;;;;;;;;;;;6275614;22;19950;-87
2022/09/21 11:42:29;;;;;;;;;;;;;;;;;;6300168;22;20339;-89
2022/09/21 11:44:55;;;;;;;;;;;;;;;;;;6273197;22;20349;-89
2022/09/21 11:47:21;;;;;;;;;;;;;;;;;;6276777;22;19922;-89
2022/09/21 11:49:47;;;;;;;;;;;;;;;;;;6274246;22;19918;-90
2022/09/21 11:52:13;;;;;;;;;;;;;;;;;;6303801;22;20235;-89
2022/09/21 11:54:39;;;;;;;;;;;;;;;;;;6274628;22;19919;-89
2022/09/21 11:57:07;;;;;;;;;;;;;;;;;;6278177;22;19918;-89
2022/09/21 11:59:33;;;;;;;;;;;;;;;;;;6275266;22;19923;-90
2022/09/21 12:01:59;;;;;;;;;;;;;;;;;;6270257;22;19918;-90
2022/09/21 12:04:26;;;;;;;;;;;;;;;;;;6272929;22;19922;-89
2022/09/21 12:06:52;;;;;;;;;;;;;;;;;;6297477;22;20247;-90
2022/09/21 12:09:18;;;;;;;;;;;;;;;;;;6301195;22;19990;-89
2022/09/21 12:11:44;;;;;;;;;;;;;;;;;;6270182;22;20334;-90
2022/09/21 12:14:10;;;;;;;;;;;;;;;;;;6294280;22;19953;-88
2022/09/21 12:16:36;;;;;;;;;;;;;;;;;;6270091;22;20303;-89
2022/09/21 12:19:03;;;;;;;;;;;;;;;;;;6273874;22;19969;-88
2022/09/21 12:21:29;;;;;;;;;;;;;;;;;;6298567;22;19954;-90
2022/09/21 12:23:55;;;;;;;;;;;;;;;;;;6270414;22;20243;-89
2022/09/21 12:26:21;;;;;;;;;;;;;;;;;;6301530;22;19956;-89
2022/09/21 12:28:47;;;;;;;;;;;;;;;;;;6273006;22;19941;-89
2022/09/21 12:31:13;;;;;;;;;;;;;;;;;;6301420;22;19919;-89
2022/09/21 12:33:41;;;;;;;;;;;;;;;;;;6273106;22;19929;-84
2022/09/21 12:36:08;;;;;;;;;;;;;;;;;;6301129;22;19914;-88
2022/09/21 12:38:37;;;;;;;;;;;;;;;;;;6273373;22;19967;-88
2022/09/21 12:41:04;;;;;;;;;;;;;;;;;;6295867;22;20356;-89
2022/09/21 12:43:30;;;;;;;;;;;;;;;;;;6299605;22;19953;-88
2022/09/21 12:45:56;;;;;;;;;;;;;;;;;;6273386;22;20376;-89
2022/09/21 12:48:22;;;;;;;;;;;;;;;;;;6276524;22;19914;-89
2022/09/21 12:50:48;;;;;;;;;;;;;;;;;;6274204;22;19970;-89
2022/09/21 12:53:14;;;;;;;;;;;;;;;;;;6302159;22;20015;-89
2022/09/21 12:55:44;;;;;;;;;;;;;;;;;;6267406;22;20290;-89
2022/09/21 12:58:10;;;;;;;;;;;;;;;;;;6297471;22;19975;-89
2022/09/21 13:00:36;;;;;;;;;;;;;;;;;;6273144;22;19926;-89
2022/09/21 13:03:03;;;;;;;;;;;;;;;;;;6301136;22;19950;-89
2022/09/21 13:05:29;;;;;;;;;;;;;;;;;;6276388;22;20002;-90
2022/09/21 13:07:55;;;;;;;;;;;;;;;;;;6298815;22;20438;-89
2022/09/21 13:10:21;;;;;;;;;;;;;;;;;;6274408;22;20247;-88
2022/09/21 13:12:47;;;;;;;;;;;;;;;;;;6272764;22;19925;-90
2022/09/21 13:15:13;;;;;;;;;;;;;;;;;;6275972;22;19950;-89
2022/09/21 13:17:39;;;;;;;;;;;;;;;;;;6300042;22;20292;-89
2022/09/21 13:20:05;;;;;;;;;;;;;;;;;;6303120;22;19972;-89
2022/09/21 13:22:32;;;;;;;;;;;;;;;;;;6300668;22;20269;-90
2022/09/21 13:25:00;;;;;;;;;;;;;;;;;;6299248;22;19968;-89
2022/09/21 13:27:26;;;;;;;;;;;;;;;;;;6277000;22;19922;-89
2022/09/21 13:29:52;;;;;;;;;;;;;;;;;;6267556;22;19919;-89
2022/09/21 13:32:18;;;;;;;;;;;;;;;;;;6274391;22;19930;-89
2022/09/21 13:34:44;;;;;;;;;;;;;;;;;;6288586;22;20367;-89
2022/09/21 13:37:10;;;;;;;;;;;;;;;;;;6265162;22;19977;-89
2022/09/21 13:39:36;;;;;;;;;;;;;;;;;;6266169;22;19923;-90
2022/09/21 13:42:03;;;;;;;;;;;;;;;;;;6265566;22;19915;-89
2022/09/21 13:44:31;;;;;;;;;;;;;;;;;;6262710;22;19953;-90
2022/09/21 13:46:58;;;;;;;;;;;;;;;;;;6261965;22;19919;-90
2022/09/21 13:49:24;;;;;;;;;;;;;;;;;;6292449;22;19919;-89
2022/09/21 13:51:56;;;;;;;;;;;;;;;;;;6263415;22;20005;-93
2022/09/21 13:54:27;;;;;;;;;;;;;;;;;;6267935;22;19934;-92
2022/09/21 13:56:55;;;;;;;;;;;;;;;;;;6262296;22;19915;-93
2022/09/21 13:59:22;;;;;;;;;;;;;;;;;;6273291;22;19919;-92
2022/09/21 14:02:08;;;;;;;;;;;;;;;;;;6240449;23;19924;-91
2022/09/21 14:04:49;;;;;;;;;;;;;;;;;;6179085;23;19920;-92
2022/09/21 14:07:18;;;;;;;;;;;;;;;;;;6231851;22;19925;-91
2022/09/21 14:09:44;;;;;;;;;;;;;;;;;;6234288;22;19954;-91
2022/09/21 14:12:11;;;;;;;;;;;;;;;;;;6264795;22;19919;-90
2022/09/21 14:14:37;;;;;;;;;;;;;;;;;;6239844;22;20136;-91
2022/09/21 14:17:03;;;;;;;;;;;;;;;;;;6240804;22;19926;-91
2022/09/21 14:19:30;;;;;;;;;;;;;;;;;;6241488;22;20418;-92
2022/09/21 14:21:57;;;;;;;;;;;;;;;;;;6237121;22;19977;-91
2022/09/21 14:24:23;;;;;;;;;;;;;;;;;;6242117;22;19967;-90
2022/09/21 14:26:51;;;;;;;;;;;;;;;;;;6265947;22;19926;-91
2022/09/21 14:29:20;;;;;;;;;;;;;;;;;;6257298;22;19919;-91
2022/09/21 14:31:46;;;;;;;;;;;;;;;;;;6291652;22;19954;-90
2022/09/21 14:34:12;;;;;;;;;;;;;;;;;;6295753;22;19923;-91
2022/09/21 14:36:40;;;;;;;;;;;;;;;;;;6261837;22;19973;-90
2022/09/21 14:39:06;;;;;;;;;;;;;;;;;;6268779;22;19919;-90
2022/09/21 14:41:35;;;;;;;;;;;;;;;;;;6267681;22;19927;-91
2022/09/21 14:44:01;;;;;;;;;;;;;;;;;;6267944;22;19914;-91
2022/09/21 14:46:30;;;;;;;;;;;;;;;;;;6267833;22;19919;-90
2022/09/21 14:48:57;;;;;;;;;;;;;;;;;;6270346;22;19919;-92
2022/09/21 14:51:23;;;;;;;;;;;;;;;;;;6263187;22;19919;-90
2022/09/21 14:53:57;;;;;;;;;;;;;;;;;;6264599;22;19922;-90
2022/09/21 14:56:28;;;;;;;;;;;;;;;;;;6265977;22;20389;-90
2022/09/21 14:58:58;;;;;;;;;;;;;;;;;;6265421;22;19919;-90
2022/09/21 15:01:29;;;;;;;;;;;;;;;;;;6268172;22;19963;-90
2022/09/21 15:04:01;;;;;;;;;;;;;;;;;;6267071;22;19919;-89
2022/09/21 15:12:08;;;;;;;;;;;;;;;;;;6295884;22;19925;-90
2022/09/21 15:17:30;;;;;;;;;;;;;;;;;;6259611;22;19915;-90
2022/09/21 15:20:15;;;;;;;;;;;;;;;;;;6268380;22;19923;-90
2022/09/21 15:22:47;;;;;;;;;;;;;;;;;;6264438;22;19918;-90
2022/09/21 15:25:19;;;;;;;;;;;;;;;;;;6263451;22;19930;-90
2022/09/21 15:30:42;;;;;;;;;;;;;;;;;;6267842;22;20013;-89
2022/09/21 15:33:09;;;;;;;;;;;;;;;;;;6265152;22;19965;-90
2022/09/21 15:35:49;;;;;;;;;;;;;;;;;;6263184;22;19930;-90
2022/09/21 15:38:15;;;;;;;;;;;;;;;;;;6267990;22;19923;-89
2022/09/21 15:40:52;;;;;;;;;;;;;;;;;;6265520;22;19930;-89
2022/09/21 15:43:21;;;;;;;;;;;;;;;;;;6267593;22;19919;-89
2022/09/21 15:45:57;;;;;;;;;;;;;;;;;;6261932;22;19915;-91
2022/09/21 15:48:26;;;;;;;;;;;;;;;;;;6266051;22;20264;-89
2022/09/21 15:50:56;;;;;;;;;;;;;;;;;;6261985;22;20335;-90
2022/09/21 15:53:40;;;;;;;;;;;;;;;;;;6290897;22;20321;-90
2022/09/21 15:56:11;;;;;;;;;;;;;;;;;;6264247;22;20462;-89
2022/09/21 15:58:46;;;;;;;;;;;;;;;;;;6284595;22;19915;-90
2022/09/21 16:01:12;;;;;;;;;;;;;;;;;;6260275;22;19922;-90
2022/09/21 16:03:44;;;;;;;;;;;;;;;;;;6254823;22;19926;-89
2022/09/21 16:06:13;;;;;;;;;;;;;;;;;;6287031;22;20222;-90
2022/09/21 16:08:49;;;;;;;;;;;;;;;;;;;;;
2022/09/21 16:11:26;;;;;;;;;;;;;;;;;;6293246;22;19923;-91
2022/09/21 16:16:47;;;;;;;;;;;;;;;;;;6283909;22;19958;-90
2022/09/21 16:19:19;;;;;;;;;;;;;;;;;;6289714;22;20382;-91
2022/09/21 16:21:49;;;;;;;;;;;;;;;;;;6262820;22;19919;-91
2022/09/21 16:27:21;;;;;;;;;;;;;;;;;;6266191;22;19957;-91
2022/09/21 16:29:50;;;;;;;;;;;;;;;;;;6228968;22;19926;-90
2022/09/21 16:32:18;;;;;;;;;;;;;;;;;;6202674;22;20307;-90
2022/09/21 16:34:50;;;;;;;;;;;;;;;;;;6218802;22;20409;-90
2022/09/21 16:37:47;;;;;;;;;;;;;;;;;;6205518;22;20176;-92
2022/09/21 16:40:16;;;;;;;;;;;;;;;;;;6206323;22;20297;-89
2022/09/21 16:45:37;;;;;;;;;;;;;;;;;;6180575;23;20500;-92
2022/09/21 16:48:09;;;;;;;;;;;;;;;;;;6145093;23;19924;-90
2022/09/21 16:50:41;;;;;;;;;;;;;;;;;;6145698;23;20352;-90
2022/09/21 16:53:10;;;;;;;;;;;;;;;;;;6141323;23;19919;-90
2022/09/21 16:55:36;;;;;;;;;;;;;;;;;;6143510;23;19991;-91
2022/09/21 16:58:05;;;;;;;;;;;;;;;;;;6149126;23;19955;-90
2022/09/21 17:00:33;;;;;;;;;;;;;;;;;;6197593;22;20328;-89
2022/09/21 17:03:01;;;;;;;;;;;;;;;;;;6205901;22;20244;-90
2022/09/21 17:05:35;;;;;;;;;;;;;;;;;;6208668;22;19919;-89
2022/09/21 17:08:04;;;;;;;;;;;;;;;;;;6210967;22;19919;-89
2022/09/21 17:10:36;;;;;;;;;;;;;;;;;;6208418;22;20289;-90